Time;durP1;ratioP1;P1;durP2;ratioP2;P2;SDS_P1;SDS_P2;PMS_P1;PMS_P2;Temp;Humidity;BMP_temperature;BMP_pressure;BME280_temperature;BME280_humidity;BME280_pressure;Samples;Min_cycle;Max_cycle;Signal;HPM_P1;HPM_P2
2023/01/04 06:04:02;;;;;;;5.40;2.85;;;4.70;99.90;;;;;;4868294;29;20072;-70
2023/01/04 06:06:28;;;;;;;6.20;3.05;;;4.80;99.90;;;;;;4865384;29;20029;-71
2023/01/04 06:08:54;;;;;;;4.97;3.00;;;5.00;99.90;;;;;;4869907;29;20169;-73
2023/01/04 06:11:19;;;;;;;5.68;3.35;;;5.30;99.90;;;;;;4868904;29;20037;-72
2023/01/04 06:13:48;;;;;;;;;;;5.40;99.90;;;;;;4870527;29;20310;-71
2023/01/04 06:16:14;;;;;;;7.07;4.10;;;5.60;99.90;;;;;;4868978;29;19915;-71
2023/01/04 06:18:39;;;;;;;7.13;4.63;;;5.60;99.90;;;;;;4869504;29;20068;-72
2023/01/04 06:21:05;;;;;;;9.13;5.00;;;5.40;99.90;;;;;;4869910;29;20215;-73
2023/01/04 06:23:31;;;;;;;6.97;4.72;;;5.30;99.90;;;;;;4869221;29;20021;-71
2023/01/04 06:25:56;;;;;;;7.10;5.30;;;5.20;99.90;;;;;;4869583;29;20033;-72
2023/01/04 06:28:22;;;;;;;7.18;5.13;;;5.10;99.90;;;;;;4869108;29;20085;-73
2023/01/04 06:30:48;;;;;;;7.95;4.85;;;5.00;99.90;;;;;;4869872;29;20059;-73
2023/01/04 06:33:13;;;;;;;7.80;5.10;;;4.90;99.90;;;;;;4869740;29;20041;-71
2023/01/04 06:35:39;;;;;;;8.73;5.10;;;4.90;99.90;;;;;;4869012;29;20033;-72
2023/01/04 06:38:05;;;;;;;8.93;5.45;;;4.80;99.90;;;;;;4869412;29;20069;-71
2023/01/04 06:40:30;;;;;;;8.48;4.93;;;4.80;99.90;;;;;;4868999;29;20026;-72
2023/01/04 06:42:56;;;;;;;7.43;4.50;;;4.70;99.90;;;;;;4869525;29;20029;-71
2023/01/04 06:45:22;;;;;;;7.15;4.90;;;4.80;99.90;;;;;;4868858;29;20041;-72
2023/01/04 06:47:47;;;;;;;7.97;4.47;;;4.80;99.90;;;;;;4884472;29;20033;-70
2023/01/04 06:50:13;;;;;;;7.80;4.82;;;4.80;99.90;;;;;;4883604;29;20041;-73
2023/01/04 06:52:40;;;;;;;8.55;4.65;;;4.90;99.90;;;;;;4868625;29;20033;-70
2023/01/04 06:55:08;;;;;;;7.57;4.57;;;4.90;99.90;;;;;;4870402;29;20307;-71
2023/01/04 06:57:34;;;;;;;7.90;4.70;;;5.00;99.90;;;;;;4887219;29;20049;-69
2023/01/04 06:59:59;;;;;;;6.22;3.85;;;5.00;99.90;;;;;;4887352;29;20215;-70
2023/01/04 07:02:25;;;;;;;7.22;4.80;;;5.00;99.90;;;;;;4872726;29;20049;-72
2023/01/04 07:04:51;;;;;;;6.85;4.28;;;5.10;99.90;;;;;;4887562;29;20029;-70
2023/01/04 07:07:17;;;;;;;9.15;4.72;;;5.10;99.90;;;;;;4886929;29;20029;-71
2023/01/04 07:09:42;;;;;;;6.70;4.20;;;5.10;99.90;;;;;;4873001;29;20052;-71
2023/01/04 07:12:08;;;;;;;6.10;4.07;;;5.20;99.90;;;;;;4887316;29;20063;-71
2023/01/04 07:14:34;;;;;;;6.15;4.13;;;5.20;99.90;;;;;;4872789;29;20037;-71
2023/01/04 07:17:00;;;;;;;6.32;3.78;;;5.20;99.90;;;;;;4872931;29;20037;-71
2023/01/04 07:19:25;;;;;;;5.28;3.42;;;5.20;99.90;;;;;;4872568;29;20278;-72
2023/01/04 07:21:52;;;;;;;7.82;3.83;;;5.20;99.90;;;;;;4872988;29;20029;-69
2023/01/04 07:24:18;;;;;;;6.22;3.97;;;5.30;99.90;;;;;;4873900;29;20150;-72
2023/01/04 07:26:44;;;;;;;6.15;3.90;;;5.30;99.90;;;;;;4876178;29;20033;-70
2023/01/04 07:29:13;;;;;;;6.07;3.60;;;5.30;99.90;;;;;;4875823;29;20058;-71
2023/01/04 07:31:38;;;;;;;6.40;3.75;;;5.40;99.90;;;;;;4874567;29;20335;-71
2023/01/04 07:34:04;;;;;;;6.72;4.00;;;5.40;99.90;;;;;;4873682;29;20040;-72
2023/01/04 07:36:31;;;;;;;6.35;3.88;;;5.40;99.90;;;;;;4872146;29;20048;-78
2023/01/04 07:39:01;;;;;;;6.07;3.88;;;5.40;99.90;;;;;;4872646;29;20378;-72
2023/01/04 07:41:26;;;;;;;7.18;3.88;;;5.40;99.90;;;;;;4886236;29;20089;-73
2023/01/04 07:43:52;;;;;;;6.63;4.00;;;5.30;99.90;;;;;;4886847;29;20184;-70
2023/01/04 07:46:18;;;;;;;8.52;4.22;;;5.30;99.90;;;;;;4886917;29;20326;-72
2023/01/04 07:48:44;;;;;;;7.30;3.97;;;5.20;99.90;;;;;;4872399;29;20037;-71
2023/01/04 07:51:10;;;;;;;6.82;4.10;;;5.20;99.90;;;;;;4872128;29;20096;-71
2023/01/04 07:53:36;;;;;;;5.93;4.13;;;5.20;99.90;;;;;;4872010;29;20040;-72
2023/01/04 07:56:01;;;;;;;6.60;3.50;;;5.20;99.90;;;;;;4871896;29;20200;-72
2023/01/04 07:58:31;;;;;;;5.43;3.90;;;5.30;99.90;;;;;;4871871;29;20303;-71
2023/01/04 08:01:09;;;;;;;6.03;4.18;;;5.30;99.90;;;;;;4871871;29;20049;-77
2023/01/04 08:03:34;;;;;;;6.75;4.25;;;5.30;99.90;;;;;;4852778;29;20216;-75
2023/01/04 08:06:10;;;;;;;6.60;4.00;;;5.40;99.90;;;;;;4853702;29;20090;-74
2023/01/04 08:08:36;;;;;;;8.18;4.93;;;5.30;99.90;;;;;;4853049;29;20245;-75
2023/01/04 08:11:13;;;;;;;8.15;4.90;;;5.30;99.90;;;;;;4868608;29;20037;-74
2023/01/04 08:13:39;;;;;;;8.68;4.93;;;5.30;99.90;;;;;;4871402;29;20041;-73
2023/01/04 08:16:06;;;;;;;10.30;5.50;;;5.20;99.90;;;;;;4871666;29;20060;-73
2023/01/04 08:18:32;;;;;;;9.13;5.30;;;5.10;99.90;;;;;;4871126;29;20034;-70
2023/01/04 08:21:06;;;;;;;9.98;5.65;;;5.20;99.90;;;;;;4872016;29;20104;-76
2023/01/04 08:23:33;;;;;;;7.55;4.57;;;5.30;99.90;;;;;;4885208;29;20041;-74
2023/01/04 08:26:08;;;;;;;10.63;5.15;;;5.30;99.90;;;;;;4871829;29;20235;-78
2023/01/04 08:28:34;;;;;;;8.10;4.75;;;5.30;99.90;;;;;;4871455;29;20379;-79
2023/01/04 08:31:08;;;;;;;8.90;5.13;;;5.40;99.90;;;;;;4871844;29;20033;-75
2023/01/04 08:33:36;;;;;;;9.82;4.53;;;5.40;99.90;;;;;;4871083;29;20057;-76
2023/01/04 08:36:17;;;;;;;10.70;5.18;;;5.50;99.90;;;;;;4871574;29;20054;-79
2023/01/04 08:38:42;;;;;;;6.57;4.18;;;5.50;99.90;;;;;;4871344;29;20081;-74
2023/01/04 08:41:08;;;;;;;6.13;3.75;;;5.50;99.90;;;;;;4871385;29;20029;-74
2023/01/04 08:43:37;;;;;;;6.15;3.85;;;5.60;99.90;;;;;;4870987;29;20038;-73
2023/01/04 08:46:03;;;;;;;6.28;3.80;;;5.60;99.90;;;;;;4871262;29;20027;-75
2023/01/04 08:48:33;;;;;;;7.78;4.20;;;5.70;99.90;;;;;;4870956;29;20037;-75
2023/01/04 08:51:00;;;;;;;7.68;3.35;;;5.70;99.90;;;;;;4885688;29;20066;-75
2023/01/04 08:53:26;;;;;;;5.13;3.22;;;5.70;99.90;;;;;;4870982;29;20045;-76
2023/01/04 08:55:53;;;;;;;5.38;2.88;;;5.80;99.90;;;;;;4871371;29;20314;-73
2023/01/04 08:58:20;;;;;;;6.00;3.10;;;5.90;99.90;;;;;;4871193;29;20029;-75
2023/01/04 09:00:46;;;;;;;4.80;2.35;;;6.00;99.90;;;;;;4870842;29;20193;-74
2023/01/04 09:03:12;;;;;;;5.78;2.80;;;6.10;99.90;;;;;;4871311;29;20065;-75
2023/01/04 09:05:38;;;;;;;6.53;2.90;;;6.20;99.90;;;;;;4870547;29;20029;-79
2023/01/04 09:08:07;;;;;;;3.90;1.73;;;6.40;99.90;;;;;;4860712;29;20030;-75
2023/01/04 09:10:37;;;;;;;5.00;1.90;;;6.40;99.90;;;;;;4860294;29;20044;-76
2023/01/04 09:13:02;;;;;;;2.58;1.08;;;6.70;99.90;;;;;;4865465;29;20078;-73
2023/01/04 09:15:28;;;;;;;2.80;1.17;;;6.90;99.90;;;;;;4870304;29;20037;-73
2023/01/04 09:17:54;;;;;;;5.30;1.40;;;7.00;99.90;;;;;;4870007;29;20100;-72
2023/01/04 09:20:19;;;;;;;3.65;1.75;;;7.20;99.90;;;;;;4871009;29;20033;-72
2023/01/04 09:22:45;;;;;;;5.50;2.00;;;7.20;99.90;;;;;;4866619;29;20117;-71
2023/01/04 09:25:11;;;;;;;5.53;2.30;;;7.30;99.90;;;;;;4870203;29;20053;-71
2023/01/04 09:27:38;;;;;;;3.45;1.73;;;7.30;99.90;;;;;;4870697;29;20032;-71
2023/01/04 09:30:05;;;;;;;6.55;2.30;;;7.40;99.90;;;;;;4870696;29;20062;-70
2023/01/04 09:32:31;;;;;;;7.13;2.55;;;7.50;99.90;;;;;;4870376;29;20099;-72
2023/01/04 09:34:56;;;;;;;5.20;2.25;;;7.60;99.90;;;;;;4870230;29;20041;-72
2023/01/04 09:37:22;;;;;;;3.40;1.00;;;7.60;99.90;;;;;;4870727;29;20041;-69
2023/01/04 09:39:48;;;;;;;2.55;0.80;;;7.80;99.90;;;;;;4869737;29;20038;-70
2023/01/04 09:42:26;;;;;;;1.55;0.47;;;8.00;99.90;;;;;;4870395;29;20049;-70
2023/01/04 09:45:00;;;;;;;1.45;0.43;;;8.10;99.90;;;;;;4870133;29;20033;-70
2023/01/04 09:47:48;;;;;;;4.60;1.80;;;8.20;99.90;;;;;;4870331;29;20087;-70
2023/01/04 09:50:40;;;;;;;4.03;1.02;;;8.30;99.90;;;;;;4870195;29;20274;-70
2023/01/04 09:53:17;;;;;;;4.78;1.10;;;8.40;99.90;;;;;;4869997;29;20376;-70
2023/01/04 09:55:48;;;;;;;2.25;0.80;;;8.50;99.90;;;;;;4869573;29;20267;-72
2023/01/04 09:58:24;;;;;;;2.15;0.60;;;8.50;99.90;;;;;;4870129;29;20037;-69
2023/01/04 10:01:15;;;;;;;2.13;0.70;;;8.50;99.90;;;;;;4869763;29;20025;-71
2023/01/04 10:03:49;;;;;;;3.75;0.90;;;8.60;99.90;;;;;;4868417;29;20049;-70
2023/01/04 10:06:15;;;;;;;3.20;1.13;;;8.60;99.90;;;;;;4870393;29;20033;-68
2023/01/04 10:08:42;;;;;;;2.30;0.60;;;8.70;99.90;;;;;;4869434;29;20044;-70
2023/01/04 10:11:33;;;;;;;1.30;0.45;;;8.70;99.90;;;;;;4865407;29;20143;-71
2023/01/04 10:14:25;;;;;;;2.17;0.63;;;8.70;99.90;;;;;;4851683;29;20029;-73
2023/01/04 10:17:02;;;;;;;2.58;0.70;;;8.70;99.90;;;;;;4851196;29;20054;-75
2023/01/04 10:19:46;;;;;;;2.05;0.60;;;8.70;99.90;;;;;;4851087;29;20298;-71
2023/01/04 10:22:25;;;;;;;1.90;0.60;;;8.70;99.90;;;;;;4851272;29;20053;-74
2023/01/04 10:24:50;;;;;;;2.80;0.60;;;8.80;99.90;;;;;;4850626;29;20034;-72
2023/01/04 10:27:31;;;;;;;2.10;0.40;;;8.80;99.90;;;;;;4851175;29;20339;-74
2023/01/04 10:30:29;;;;;;;2.25;0.70;;;8.80;99.90;;;;;;4867104;29;20030;-76
2023/01/04 10:33:10;;;;;;;;;;;8.90;99.90;;;;;;4870094;29;20049;-75
2023/01/04 10:35:36;;;;;;;2.83;0.73;;;8.90;99.90;;;;;;4869023;29;19916;-72
2023/01/04 10:38:22;;;;;;;1.27;0.43;;;8.90;99.90;;;;;;4869793;29;20060;-75
2023/01/04 10:40:50;;;;;;;2.10;0.60;;;9.00;99.90;;;;;;4869877;29;20282;-78
2023/01/04 10:43:22;;;;;;;2.60;0.68;;;9.10;99.90;;;;;;4869701;29;20045;-76
2023/01/04 10:46:01;;;;;;;2.38;0.70;;;9.10;99.90;;;;;;4883418;29;20311;-76
2023/01/04 10:48:32;;;;;;;1.70;0.63;;;9.30;99.90;;;;;;4869720;29;20307;-73
2023/01/04 10:51:00;;;;;;;2.83;0.70;;;9.40;99.90;;;;;;4870098;29;20097;-73
2023/01/04 10:53:51;;;;;;;1.52;0.60;;;9.50;99.90;;;;;;4869153;29;20052;-73
2023/01/04 10:56:22;;;;;;;2.72;0.60;;;9.60;99.90;;;;;;4869776;29;20034;-73
2023/01/04 10:59:17;;;;;;;3.47;0.52;;;9.60;99.90;;;;;;4869216;29;20060;-73
2023/01/04 11:01:54;;;;;;;1.60;0.60;;;9.70;99.90;;;;;;4856707;29;20073;-74
2023/01/04 11:04:34;;;;;;;2.33;0.40;;;9.70;99.90;;;;;;4868886;29;20033;-80
2023/01/04 11:07:09;;;;;;;1.38;0.40;;;9.70;99.90;;;;;;4869606;29;20105;-72
2023/01/04 11:10:00;;;;;;;1.92;0.60;;;9.70;99.90;;;;;;4868340;29;20025;-77
2023/01/04 11:12:26;;;;;;;1.65;0.30;;;9.80;99.90;;;;;;4869384;29;20437;-78
2023/01/04 11:14:52;;;;;;;2.30;0.68;;;9.80;99.90;;;;;;4883125;29;20298;-76
2023/01/04 11:17:20;;;;;;;1.90;0.40;;;9.80;99.90;;;;;;4869323;29;20048;-77
2023/01/04 11:19:46;;;;;;;1.10;0.30;;;9.80;99.90;;;;;;4868447;29;20045;-74
2023/01/04 11:22:29;;;;;;;2.15;0.50;;;10.00;99.90;;;;;;4869500;29;20107;-74
2023/01/04 11:25:01;;;;;;;1.38;0.50;;;10.00;99.90;;;;;;4868649;29;20308;-74
2023/01/04 11:27:33;;;;;;;1.30;0.40;;;10.00;99.90;;;;;;4869341;29;20044;-73
2023/01/04 11:30:20;;;;;;;1.75;0.60;;;10.00;99.90;;;;;;4869229;29;20329;-72
2023/01/04 11:33:13;;;;;;;1.40;0.30;;;10.00;99.90;;;;;;4868335;29;20056;-74
2023/01/04 11:35:45;;;;;;;2.22;0.45;;;10.10;99.90;;;;;;4868903;29;20038;-76
2023/01/04 11:38:17;;;;;;;1.92;0.50;;;10.10;99.90;;;;;;4869269;29;20076;-76
2023/01/04 11:40:53;;;;;;;2.85;0.50;;;10.20;99.90;;;;;;4868684;29;20097;-75
2023/01/04 11:43:20;;;;;;;1.52;0.68;;;10.20;99.90;;;;;;4872520;29;20037;-76
2023/01/04 11:45:56;;;;;;;2.00;0.95;;;10.20;99.90;;;;;;4886653;29;20033;-77
2023/01/04 11:48:33;;;;;;;3.40;0.65;;;10.20;99.90;;;;;;4886701;29;20057;-75
2023/01/04 11:50:59;;;;;;;1.77;0.45;;;10.30;99.90;;;;;;4871110;29;20042;-75
2023/01/04 11:53:36;;;;;;;2.20;0.50;;;10.30;99.90;;;;;;4872189;29;20049;-75
2023/01/04 11:56:20;;;;;;;2.05;0.60;;;10.30;99.90;;;;;;4871863;29;20227;-73
2023/01/04 11:59:15;;;;;;;2.03;0.60;;;10.20;99.90;;;;;;4871962;29;20248;-75
2023/01/04 12:01:50;;;;;;;1.85;0.60;;;10.30;99.90;;;;;;4869040;29;20056;-80
2023/01/04 12:04:22;;;;;;;4.60;0.70;;;10.30;99.90;;;;;;4872087;29;20043;-73
2023/01/04 12:06:59;;;;;;;2.95;0.95;;;10.40;99.90;;;;;;4870113;29;20041;-72
2023/01/04 12:09:24;;;;;;;4.85;1.42;;;10.40;99.90;;;;;;4855716;29;20072;-75
2023/01/04 12:11:59;;;;;;;2.05;0.50;;;10.40;99.90;;;;;;4871282;29;20261;-75
2023/01/04 12:14:27;;;;;;;2.30;0.47;;;10.40;99.90;;;;;;4872192;29;20193;-75
2023/01/04 12:17:29;;;;;;;1.40;0.60;;;10.40;99.90;;;;;;4871206;29;20068;-75
2023/01/04 12:19:56;;;;;;;2.08;0.80;;;10.40;99.90;;;;;;4871332;29;20105;-74
2023/01/04 12:22:22;;;;;;;3.55;0.60;;;10.30;99.90;;;;;;4871686;29;20117;-74
2023/01/04 12:24:48;;;;;;;2.70;0.73;;;10.30;99.90;;;;;;4871647;29;20065;-75
2023/01/04 12:27:14;;;;;;;2.30;0.55;;;10.40;99.90;;;;;;4886193;29;20101;-75
2023/01/04 12:30:01;;;;;;;3.00;0.68;;;10.40;99.90;;;;;;4871180;29;20044;-73
2023/01/04 12:32:27;;;;;;;1.77;0.50;;;10.40;99.90;;;;;;4853391;29;20070;-74
2023/01/04 12:34:54;;;;;;;2.92;0.68;;;10.40;99.90;;;;;;4857915;29;20038;-73
2023/01/04 12:37:44;;;;;;;2.67;0.43;;;10.50;99.90;;;;;;4872933;29;20232;-74
2023/01/04 12:40:46;;;;;;;1.55;0.50;;;10.60;99.90;;;;;;4869126;29;20041;-75
2023/01/04 12:43:15;;;;;;;4.28;0.73;;;10.60;99.90;;;;;;4863679;29;20049;-74
2023/01/04 12:45:41;;;;;;;;;;;10.70;99.90;;;;;;4875785;29;20097;-71
2023/01/04 12:51:24;;;;;;;2.72;0.82;;;10.90;99.90;;;;;;4871528;29;20068;-72
2023/01/04 12:53:52;;;;;;;2.28;1.00;;;11.00;99.90;;;;;;4870014;29;20034;-74
2023/01/04 12:56:18;;;;;;;;;;;11.20;99.90;;;;;;4886976;29;20053;-74
2023/01/04 12:59:08;;;;;;;1.98;0.40;;;11.20;99.90;;;;;;4871038;29;19915;-71
2023/01/04 13:01:35;;;;;;;28.35;15.27;;;11.10;99.90;;;;;;4870603;29;20100;-69
2023/01/04 13:04:22;;;;;;;39.28;18.13;;;11.20;99.90;;;;;;4870481;29;20053;-75
2023/01/04 13:06:48;;;;;;;32.67;16.13;;;11.20;99.90;;;;;;4884874;29;20128;-74
2023/01/04 13:09:21;;;;;;;36.47;19.10;;;11.30;99.90;;;;;;4871083;29;20088;-73
2023/01/04 13:12:02;;;;;;;11.52;5.78;;;11.40;99.90;;;;;;4866497;29;20064;-74
2023/01/04 13:14:45;;;;;;;5.28;2.85;;;11.50;99.90;;;;;;4857382;29;20045;-69
2023/01/04 13:17:25;;;;;;;2.25;0.50;;;11.50;99.90;;;;;;4852528;29;20050;-68
2023/01/04 13:19:51;;;;;;;1.70;0.50;;;11.40;99.90;;;;;;4851801;29;20033;-72
2023/01/04 13:22:27;;;;;;;3.55;0.50;;;11.40;99.90;;;;;;4852471;29;20052;-70
2023/01/04 13:24:56;;;;;;;2.33;0.47;;;11.50;99.90;;;;;;4851800;29;20030;-72
2023/01/04 13:27:23;;;;;;;2.03;0.40;;;11.50;99.90;;;;;;4851156;29;20227;-72
2023/01/04 13:29:50;;;;;;;1.70;0.60;;;11.50;99.90;;;;;;4851883;29;20033;-72
2023/01/04 13:32:21;;;;;;;1.95;0.50;;;11.50;99.90;;;;;;4870308;29;20135;-72
2023/01/04 13:35:03;;;;;;;2.05;0.50;;;11.60;99.90;;;;;;4869915;29;20033;-74
2023/01/04 13:37:31;;;;;;;1.98;0.60;;;11.50;99.90;;;;;;4870129;29;20033;-76
2023/01/04 13:40:03;;;;;;;;;;;11.50;99.90;;;;;;4870261;29;20097;-69
2023/01/04 13:42:36;;;;;;;1.63;0.65;;;11.50;99.90;;;;;;4870347;29;19908;-71
2023/01/04 13:45:02;;;;;;;4.15;0.60;;;11.50;99.90;;;;;;4870014;29;20048;-70
2023/01/04 13:47:33;;;;;;;2.25;0.63;;;11.60;99.90;;;;;;4870277;29;20037;-70
2023/01/04 13:49:59;;;;;;;2.65;0.70;;;11.70;99.90;;;;;;4869868;29;20056;-70
2023/01/04 13:52:27;;;;;;;1.33;0.40;;;11.60;99.90;;;;;;4869972;29;20049;-70
2023/01/04 13:55:23;;;;;;;2.35;0.40;;;11.50;99.90;;;;;;4869379;29;20163;-72
2023/01/04 13:58:06;;;;;;;1.35;0.50;;;11.60;99.90;;;;;;4851234;29;20025;-70
2023/01/04 14:00:42;;;;;;;1.70;0.43;;;11.60;99.90;;;;;;4855459;29;20029;-71
2023/01/04 14:03:20;;;;;;;1.45;0.30;;;11.60;99.90;;;;;;4884081;29;20049;-70
2023/01/04 14:05:49;;;;;;;1.60;0.40;;;11.50;99.90;;;;;;4869590;29;20068;-70
2023/01/04 14:08:34;;;;;;;1.10;0.20;;;11.50;99.90;;;;;;4870282;29;20077;-70
2023/01/04 14:11:01;;;;;;;2.50;0.50;;;11.60;99.90;;;;;;4869688;29;20034;-71
2023/01/04 14:13:27;;;;;;;2.33;0.50;;;11.60;99.90;;;;;;4869782;29;20045;-70
2023/01/04 14:16:12;;;;;;;0.90;0.20;;;11.60;99.90;;;;;;4883671;29;20263;-70
2023/01/04 14:18:38;;;;;;;1.73;0.30;;;11.50;99.90;;;;;;4869773;29;20022;-71
2023/01/04 14:21:13;;;;;;;1.27;0.30;;;11.50;99.90;;;;;;4869293;29;20059;-70
2023/01/04 14:23:38;;;;;;;1.17;0.30;;;11.50;99.90;;;;;;4869810;29;20080;-71
2023/01/04 14:26:04;;;;;;;0.73;0.20;;;11.50;99.90;;;;;;4869576;29;20038;-71
2023/01/04 14:28:35;;;;;;;1.13;0.40;;;11.50;99.90;;;;;;4884734;29;20041;-71
2023/01/04 14:31:05;;;;;;;1.17;0.32;;;11.40;99.90;;;;;;4870141;29;20048;-72
2023/01/04 14:33:43;;;;;;;1.17;0.20;;;11.40;99.90;;;;;;4870287;29;20053;-71
2023/01/04 14:36:12;;;;;;;1.65;0.45;;;11.40;99.90;;;;;;4870597;29;20263;-71
2023/01/04 14:38:38;;;;;;;;;;;11.30;99.90;;;;;;4871210;29;20033;-71
2023/01/04 14:41:34;;;;;;;0.82;0.30;;;11.40;99.90;;;;;;4884086;29;19927;-71
2023/01/04 14:44:00;;;;;;;2.35;0.40;;;11.40;99.90;;;;;;4867981;29;20052;-71
2023/01/04 14:46:31;;;;;;;1.85;0.40;;;11.40;99.90;;;;;;4869772;29;20056;-72
2023/01/04 14:48:57;;;;;;;2.28;0.40;;;11.30;99.90;;;;;;4868962;29;20352;-71
2023/01/04 14:51:47;;;;;;;1.63;0.40;;;11.30;99.90;;;;;;4869684;29;20025;-72
2023/01/04 14:54:14;;;;;;;1.13;0.30;;;11.30;99.90;;;;;;4869469;29;20058;-70
2023/01/04 14:56:40;;;;;;;1.77;0.20;;;11.30;99.90;;;;;;4869529;29;20029;-71
2023/01/04 14:59:07;;;;;;;2.53;0.40;;;11.30;99.90;;;;;;4869064;29;20049;-71
2023/01/04 15:01:33;;;;;;;2.28;0.20;;;11.20;99.90;;;;;;4868827;29;20113;-71
2023/01/04 15:03:59;;;;;;;2.92;0.50;;;11.20;99.90;;;;;;4868832;29;20346;-72
2023/01/04 15:06:25;;;;;;;1.65;0.40;;;11.20;99.90;;;;;;4869407;29;20065;-71
2023/01/04 15:08:51;;;;;;;2.38;0.30;;;11.20;99.90;;;;;;4869020;29;20045;-72
2023/01/04 15:11:17;;;;;;;2.10;0.28;;;11.20;99.90;;;;;;4869011;29;20089;-71
2023/01/04 15:13:43;;;;;;;1.33;0.30;;;11.10;99.90;;;;;;4869469;29;20249;-72
2023/01/04 15:16:12;;;;;;;1.20;0.32;;;11.10;99.90;;;;;;4870133;29;20056;-71
2023/01/04 15:18:38;;;;;;;1.67;0.30;;;11.10;99.90;;;;;;4872791;29;20037;-70
2023/01/04 15:21:05;;;;;;;1.25;0.28;;;11.10;99.90;;;;;;4872291;29;20261;-71
2023/01/04 15:23:30;;;;;;;1.33;0.38;;;11.10;99.90;;;;;;4872670;29;20037;-72
2023/01/04 15:25:57;;;;;;;2.05;0.40;;;11.10;99.90;;;;;;4872297;29;20305;-71
2023/01/04 15:28:24;;;;;;;2.28;0.50;;;11.10;99.90;;;;;;4873008;29;20029;-71
2023/01/04 15:30:50;;;;;;;1.98;0.40;;;11.10;99.90;;;;;;4871831;29;20034;-71
2023/01/04 15:33:16;;;;;;;1.08;0.30;;;11.00;99.90;;;;;;4872578;29;20048;-73
2023/01/04 15:35:42;;;;;;;1.17;0.40;;;11.00;99.90;;;;;;4872591;29;20029;-71
2023/01/04 15:38:07;;;;;;;2.40;0.30;;;10.90;99.90;;;;;;4873253;29;20077;-70
2023/01/04 15:40:34;;;;;;;1.73;0.57;;;10.90;99.90;;;;;;4872606;29;20085;-72
2023/01/04 15:43:01;;;;;;;3.47;0.47;;;10.90;99.90;;;;;;4872000;29;20121;-72
2023/01/04 15:45:29;;;;;;;1.70;0.30;;;10.90;99.90;;;;;;4872715;29;20222;-71
2023/01/04 15:48:01;;;;;;;;;;;10.90;99.90;;;;;;4872653;29;20034;-70
2023/01/04 15:50:29;;;;;;;1.13;0.30;;;10.90;99.90;;;;;;4872373;29;19915;-72
2023/01/04 15:52:56;;;;;;;1.90;0.50;;;10.90;99.90;;;;;;4871885;29;20049;-70
2023/01/04 15:55:22;;;;;;;1.52;0.38;;;10.90;99.90;;;;;;4872253;29;20051;-71
2023/01/04 15:57:48;;;;;;;1.75;0.47;;;10.90;99.90;;;;;;4872588;29;20303;-69
2023/01/04 16:00:14;;;;;;;1.63;0.40;;;10.90;99.90;;;;;;4872058;29;20029;-71
2023/01/04 16:02:40;;;;;;;2.38;0.77;;;10.90;99.90;;;;;;4872031;29;20053;-73
2023/01/04 16:05:06;;;;;;;2.05;0.50;;;10.90;99.90;;;;;;4871981;29;20115;-73
2023/01/04 16:07:32;;;;;;;1.80;0.40;;;10.90;99.90;;;;;;4871839;29;20035;-76
2023/01/04 16:09:58;;;;;;;1.63;0.55;;;10.80;99.90;;;;;;4871774;29;20030;-71
2023/01/04 16:12:43;;;;;;;1.77;0.47;;;10.90;99.90;;;;;;4872027;29;20058;-72
2023/01/04 16:15:10;;;;;;;1.38;0.40;;;10.90;99.90;;;;;;4869284;29;20029;-74
2023/01/04 16:17:36;;;;;;;2.90;0.50;;;10.90;99.90;;;;;;4871704;29;20169;-74
2023/01/04 16:20:03;;;;;;;2.17;0.40;;;10.90;99.90;;;;;;4870480;29;20339;-75
2023/01/04 16:22:29;;;;;;;2.03;0.47;;;10.90;99.90;;;;;;4872090;29;20034;-74
2023/01/04 16:24:54;;;;;;;1.27;0.45;;;10.90;99.90;;;;;;4866060;29;20074;-72
2023/01/04 16:27:20;;;;;;;2.22;0.50;;;11.00;99.90;;;;;;4853447;29;20218;-73
2023/01/04 16:29:49;;;;;;;4.68;0.70;;;11.00;99.90;;;;;;4868414;29;20029;-71
2023/01/04 16:32:15;;;;;;;;;;;11.00;99.90;;;;;;4871470;29;20319;-74
2023/01/04 16:34:40;;;;;;;1.60;0.40;;;11.00;99.90;;;;;;4871807;29;19908;-73
2023/01/04 16:37:06;;;;;;;1.90;0.80;;;11.00;99.90;;;;;;4871259;29;20030;-73
2023/01/04 16:39:32;;;;;;;2.15;0.93;;;11.10;99.90;;;;;;4871418;29;20066;-76
2023/01/04 16:41:58;;;;;;;1.60;0.55;;;11.10;99.90;;;;;;4870949;29;20033;-74
2023/01/04 16:44:24;;;;;;;1.25;0.47;;;11.10;99.90;;;;;;4871383;29;20060;-73
2023/01/04 16:46:49;;;;;;;1.02;0.30;;;11.10;99.90;;;;;;4871623;29;20068;-72
2023/01/04 16:49:16;;;;;;;1.05;0.38;;;11.20;99.90;;;;;;4868229;29;20150;-71
2023/01/04 16:51:48;;;;;;;1.95;0.32;;;11.20;99.90;;;;;;4861705;29;20073;-72
2023/01/04 16:54:16;;;;;;;0.95;0.30;;;11.20;99.90;;;;;;4863302;29;20029;-75
2023/01/04 16:56:43;;;;;;;1.83;0.60;;;11.30;99.90;;;;;;4855238;29;20038;-77
2023/01/04 16:59:14;;;;;;;2.38;0.95;;;11.20;99.90;;;;;;4859543;29;20030;-71
2023/01/04 17:01:41;;;;;;;0.75;0.25;;;11.20;99.90;;;;;;4860194;29;20169;-71
2023/01/04 17:04:09;;;;;;;1.33;0.55;;;11.20;99.90;;;;;;4891948;29;20249;-73
2023/01/04 17:06:37;;;;;;;0.95;0.30;;;11.30;99.90;;;;;;4863981;29;20088;-77
2023/01/04 17:09:05;;;;;;;1.45;0.40;;;11.30;99.90;;;;;;4859387;29;20292;-76
2023/01/04 17:11:35;;;;;;;1.00;0.32;;;11.40;99.90;;;;;;4865919;29;20307;-73
2023/01/04 17:14:02;;;;;;;1.50;0.60;;;11.30;99.90;;;;;;4870443;29;20223;-71
2023/01/04 17:16:28;;;;;;;0.93;0.30;;;11.40;99.90;;;;;;4870708;29;20037;-73
2023/01/04 17:18:55;;;;;;;2.08;0.40;;;11.40;99.90;;;;;;4870243;29;20045;-70
2023/01/04 17:21:26;;;;;;;1.17;0.30;;;11.40;99.90;;;;;;4870440;29;20044;-73
2023/01/04 17:27:45;;;;;;;2.45;0.40;;;11.40;99.90;;;;;;4856207;29;20084;-72
2023/01/04 17:30:11;;;;;;;0.85;0.30;;;11.30;99.90;;;;;;4870865;29;20034;-72
2023/01/04 17:32:37;;;;;;;1.33;0.40;;;11.40;99.90;;;;;;4870429;29;20052;-73
2023/01/04 17:35:03;;;;;;;2.42;0.43;;;11.30;99.90;;;;;;4870816;29;20351;-73
2023/01/04 17:37:29;;;;;;;3.10;0.80;;;11.30;99.90;;;;;;4870611;29;20150;-72
2023/01/04 17:39:54;;;;;;;1.58;0.40;;;11.30;99.90;;;;;;4884349;29;20029;-73
2023/01/04 17:42:20;;;;;;;1.60;0.30;;;11.30;99.90;;;;;;4864701;29;20038;-72
2023/01/04 17:44:48;;;;;;;1.73;0.47;;;11.40;99.90;;;;;;4862323;29;20379;-74
2023/01/04 17:47:14;;;;;;;1.33;0.40;;;11.40;99.90;;;;;;4857498;29;20085;-71
2023/01/04 17:49:39;;;;;;;1.58;0.38;;;11.40;99.90;;;;;;4852084;29;20254;-72
2023/01/04 17:52:05;;;;;;;1.98;0.43;;;11.40;99.90;;;;;;4851696;29;20045;-72
2023/01/04 17:54:31;;;;;;;2.08;0.45;;;11.40;99.90;;;;;;4853082;29;20033;-74
2023/01/04 17:56:57;;;;;;;1.85;0.80;;;11.40;99.90;;;;;;4888903;29;20040;-74
2023/01/04 17:59:23;;;;;;;2.08;0.60;;;11.40;99.90;;;;;;4887884;29;20040;-72
2023/01/04 18:01:48;;;;;;;2.35;0.70;;;11.40;99.90;;;;;;4874955;29;20048;-73
2023/01/04 18:04:14;;;;;;;1.65;0.40;;;11.40;99.90;;;;;;4869628;29;20036;-72
2023/01/04 18:06:40;;;;;;;1.15;0.30;;;11.40;99.90;;;;;;4870020;29;20037;-73
2023/01/04 18:09:07;;;;;;;1.25;0.40;;;11.40;99.90;;;;;;4869748;29;20065;-74
2023/01/04 18:11:34;;;;;;;1.17;0.40;;;11.40;99.90;;;;;;4869615;29;20029;-73
2023/01/04 18:14:00;;;;;;;2.05;0.70;;;11.30;99.90;;;;;;4884649;29;20315;-74
2023/01/04 18:16:28;;;;;;;1.10;0.43;;;11.40;99.90;;;;;;4869075;29;20029;-74
2023/01/04 18:18:55;;;;;;;3.30;0.52;;;11.30;99.90;;;;;;4869677;29;20094;-73
2023/01/04 18:21:25;;;;;;;1.00;0.40;;;11.30;99.90;;;;;;4869286;29;20057;-72
2023/01/04 18:23:53;;;;;;;1.60;0.50;;;11.30;99.90;;;;;;4869649;29;20533;-73
2023/01/04 18:26:19;;;;;;;0.88;0.40;;;11.30;99.90;;;;;;4869417;29;20059;-73
2023/01/04 18:28:45;;;;;;;2.85;0.85;;;11.30;99.90;;;;;;4875346;29;20060;-74
2023/01/04 18:31:14;;;;;;;1.17;0.45;;;11.20;99.90;;;;;;4869257;29;20038;-71
2023/01/04 18:33:41;;;;;;;2.88;0.32;;;11.20;99.90;;;;;;4869727;29;20037;-73
2023/01/04 18:36:08;;;;;;;1.67;0.30;;;11.20;99.90;;;;;;4869385;29;20078;-71
2023/01/04 18:38:35;;;;;;;1.55;0.50;;;11.20;99.90;;;;;;4869516;29;20227;-73
2023/01/04 18:41:08;;;;;;;2.45;0.45;;;11.20;99.90;;;;;;4869728;29;20056;-74
2023/01/04 18:43:35;;;;;;;1.35;0.30;;;11.20;99.90;;;;;;4883805;29;20041;-72
2023/01/04 18:46:10;;;;;;;2.83;0.50;;;11.20;99.90;;;;;;4883670;29;20192;-72
2023/01/04 18:48:36;;;;;;;1.00;0.32;;;11.10;99.90;;;;;;4869332;29;20231;-70
2023/01/04 18:51:04;;;;;;;1.38;0.32;;;11.20;99.90;;;;;;4868579;29;20092;-71
2023/01/04 18:53:30;;;;;;;1.10;0.30;;;11.10;99.90;;;;;;4868668;29;20157;-72
2023/01/04 18:55:56;;;;;;;1.45;0.43;;;11.10;99.90;;;;;;4869563;29;20026;-70
2023/01/04 18:58:22;;;;;;;2.22;0.40;;;11.20;99.90;;;;;;4868904;29;20065;-72
2023/01/04 19:00:48;;;;;;;0.50;0.20;;;11.20;99.90;;;;;;4869377;29;20308;-72
2023/01/04 19:03:14;;;;;;;0.70;0.28;;;11.20;99.90;;;;;;4868300;29;20057;-72
2023/01/04 19:05:40;;;;;;;1.10;0.40;;;11.30;99.90;;;;;;4869327;29;20048;-73
2023/01/04 19:08:06;;;;;;;1.08;0.30;;;11.30;99.90;;;;;;4869307;29;20033;-71
2023/01/04 19:10:32;;;;;;;0.82;0.20;;;11.30;99.90;;;;;;4868758;29;20377;-70
2023/01/04 19:12:58;;;;;;;1.67;0.40;;;11.30;99.90;;;;;;4869284;29;20049;-72
2023/01/04 19:15:24;;;;;;;1.98;0.73;;;11.30;99.90;;;;;;4868729;29;20060;-71
2023/01/04 19:17:50;;;;;;;1.17;0.20;;;11.30;99.90;;;;;;4869238;29;20096;-72